DW0542 Weather Reports


time (UTC)temp
C
wind
direction
speed
KPH
gust
KPH
rain 1hr
cm
rain 24hr
cm
rain mn
cm
humidity
%
barometer
mb
20200531081524 15 292 12.9 20.9 0.00 0.13 0.00 73 1011.8
20200531080035 15 264 6.4 16.1 0.00 0.13 0.00 71 1011.7
20200531074517 15 292 8.0 19.3 0.00 0.13 0.00 71 1011.8
20200531073011 15 293 12.9 22.5 0.00 0.13 0.00 69 1011.6
20200531071532 16 305 14.5 25.7 0.00 0.33 0.00 70 1011.5
20200531070011 16 299 16.1 25.7 0.00 0.33 0.00 68 1011.4
20200531064506 16 290 20.9 38.6 0.00 0.33 0.00 67 1011.3
20200531063154 16 288 19.3 29.0 0.00 0.33 0.00 70 1011.2
20200531063003 16 11 19.3 29.0 0.00 0.33 0.00 69 1011.2
20200531061635 16 303 12.9 20.9 0.00 0.33 0.00 70 1011.3
20200531060230 16 315 4.8 17.7 0.00 0.33 0.00 72 1011.3
20200531054645 16 297 0.0 12.9 0.00 0.33 0.00 72 1011.3
20200531053125 16 288 0.0 8.0 0.00 0.33 0.00 69 1011.3
20200531051614 17 296 0.0 12.9 0.00 0.33 0.00 69 1011.4
20200531050118 17 311 11.3 19.3 0.00 0.33 0.00 70 1011.3
20200531044627 17 281 11.3 16.1 0.00 0.33 0.00 67 1011.3
20200531043159 17 285 9.7 17.7 0.00 0.33 0.00 70 1011.3
20200531041637 17 308 11.3 20.9 0.00 0.33 0.33 69 1011.3
20200531040055 17 302 11.3 25.7 0.00 0.33 0.33 67 1011.2
20200531034542 18 306 11.3 20.9 0.00 0.33 0.33 69 1011.4
20200531033133 18 295 17.7 25.7 0.00 0.33 0.33 66 1011.3
20200531031618 18 263 16.1 29.0 0.00 0.33 0.33 68 1011.3
20200531030104 18 318 17.7 27.4 0.00 0.33 0.33 68 1011.1
20200531024606 18 300 12.9 22.5 0.00 0.33 0.33 68 1010.9
20200531023111 16 316 11.3 25.7 0.00 0.33 0.33 80 1010.9
20200531021612 15 291 0.0 0.0 0.00 0.33 0.33 74 1010.1
20200531020038 15 291 0.0 0.0 0.00 0.33 0.33 73 1010.0
20200531014555 16 291 0.0 0.0 0.00 0.33 0.33 71 1010.0
20200531013044 16 291 0.0 0.0 0.00 0.33 0.33 69 1010.0
20200531011551 17 291 0.0 0.0 0.00 0.33 0.33 67 1010.0
20200531010120 17 291 0.0 0.0 0.00 0.33 0.33 65 1010.0
20200531004546 18 291 0.0 0.0 0.00 0.33 0.33 63 1009.8
20200531003028 20 291 0.0 0.0 0.00 0.33 0.33 57 1009.7
20200531001542 22 291 0.0 0.0 0.00 0.33 0.33 49 1009.7
20200531000053 23 291 0.0 0.0 0.00 0.33 0.33 45 1009.4
20200530234537 23 291 0.0 1.6 0.00 0.33 0.33 44 1009.7
20200530233033 23 296 0.0 8.0 0.00 0.33 0.33 45 1009.7
20200530231518 23 284 3.2 16.1 0.00 0.33 0.33 44 1009.7
20200530230020 23 291 11.3 22.5 0.00 0.33 0.33 44 1009.6
20200530224521 24 275 4.8 17.7 0.00 0.33 0.33 49 1009.4
20200530223045 24 274 6.4 16.1 0.00 0.33 0.33 46 1009.3
20200530221518 23 295 8.0 20.9 0.00 0.33 0.33 47 1009.2
20200530220019 23 268 11.3 19.3 0.00 0.33 0.33 45 1009.2
20200530214536 23 286 6.4 17.7 0.00 0.33 0.33 48 1009.0
20200530213020 23 283 9.7 22.5 0.00 0.33 0.33 45 1009.0
20200530211526 23 300 0.0 22.5 0.00 0.33 0.33 52 1009.1
20200530210027 23 267 6.4 14.5 0.00 0.33 0.33 49 1009.2
20200530203008 23 230 3.2 22.5 0.00 0.33 0.33 49 1009.2
20200530201513 23 280 3.2 19.3 0.00 0.33 0.33 50 1009.2
20200530200017 23 263 0.0 14.5 0.00 0.33 0.33 52 1009.2
20200530193001 22 282 4.8 19.3 0.00 0.33 0.33 50 1009.4
20200530191703 22 311 9.7 20.9 0.00 0.33 0.33 57 1009.2
20200530190131 22 296 9.7 17.7 0.00 0.33 0.33 56 1009.3
20200530184618 22 305 3.2 14.5 0.00 0.33 0.33 54 1009.2
20200530183115 22 270 12.9 19.3 0.00 0.33 0.33 57 1009.5
20200530181601 22 307 14.5 24.1 0.00 0.33 0.33 57 1009.6
20200530180057 21 284 11.3 19.3 0.00 0.33 0.33 58 1009.5
20200530174633 21 301 12.9 22.5 0.00 0.33 0.33 56 1009.6
20200530173100 21 316 11.3 19.3 0.00 0.33 0.33 57 1009.7
20200530171652 21 272 11.3 17.7 0.00 0.33 0.33 60 1009.8
20200530170113 21 226 3.2 19.3 0.00 0.33 0.33 60 1010.0
20200530164606 21 274 3.2 16.1 0.00 0.33 0.33 59 1010.1
20200530163125 21 310 8.0 20.9 0.00 0.33 0.33 64 1010.1
20200530161629 20 251 3.2 19.3 0.00 0.33 0.33 63 1010.2
20200530160100 20 277 8.0 27.4 0.00 0.33 0.33 63 1010.5
20200530154638 20 260 9.7 24.1 0.00 0.33 0.33 64 1010.6
20200530153115 20 234 4.8 24.1 0.00 0.33 0.33 64 1010.8
20200530151642 20 290 9.7 22.5 0.00 0.33 0.33 65 1010.7
20200530150135 20 307 9.7 27.4 0.00 0.33 0.33 66 1010.5
20200530144608 20 284 6.4 22.5 0.00 0.33 0.33 68 1010.5
20200530143125 20 301 12.9 22.5 0.00 0.33 0.33 66 1010.4
20200530141617 20 305 14.5 27.4 0.00 0.33 0.33 67 1010.2
20200530140102 20 295 8.0 19.3 0.00 0.33 0.33 71 1010.2
20200530134548 20 272 12.9 22.5 0.00 0.33 0.33 70 1010.3
20200530133037 20 275 6.4 22.5 0.00 0.33 0.33 72 1010.4
20200530131706 20 279 11.3 27.4 0.00 0.33 0.33 75 1010.4
20200530130122 20 290 17.7 27.4 0.00 0.33 0.33 78 1010.2
20200530124534 20 288 1.6 20.9 0.00 0.33 0.33 84 1010.1
20200530123036 20 295 6.4 17.7 0.00 0.33 0.33 89 1010.1
20200530121604 19 246 4.8 11.3 0.00 0.33 0.33 92 1010.0
20200530120056 18 207 0.0 0.0 0.03 0.33 0.33 93 1009.9
20200530114549 18 207 0.0 8.0 0.03 0.33 0.33 93 1009.9
20200530113036 18 220 0.0 0.0 0.05 0.33 0.33 93 1009.9
20200530111548 18 226 0.0 6.4 0.05 0.36 0.33 93 1009.7
20200530110044 18 211 0.0 8.0 0.03 0.33 0.30 93 1009.6
20200530104552 18 205 0.0 1.6 0.03 0.33 0.30 93 1009.7
20200530103031 18 211 0.0 0.0 0.00 0.30 0.28 93 1009.7
20200530101545 18 205 0.0 11.3 0.00 0.30 0.28 93 1009.5
20200530100026 18 213 0.0 11.3 0.00 0.30 0.28 93 1009.3
20200530094543 18 196 0.0 4.8 0.00 0.30 0.28 93 1009.3
20200530093049 18 197 0.0 0.0 0.00 0.30 0.28 93 1009.2
20200530091531 18 160 0.0 0.0 0.00 0.30 0.28 93 1008.9
20200530090100 18 107 0.0 1.6 0.03 0.30 0.28 93 1008.9
20200530084544 18 68 0.0 1.6 0.05 0.30 0.28 93 1008.9
20200530083023 18 108 0.0 0.0 0.05 0.30 0.28 93 1009.2